sensor_id;sensor_type;location;lat;lon;timestamp;temperature;humidity
75164;HTU21D;63746;45.402;37.922;2024-02-04T00:00:45;6.51;77.50
75164;HTU21D;63746;45.402;37.922;2024-02-04T00:03:12;6.51;77.49
75164;HTU21D;63746;45.402;37.922;2024-02-04T00:05:56;6.52;77.40
75164;HTU21D;63746;45.402;37.922;2024-02-04T00:08:23;6.53;77.57
75164;HTU21D;63746;45.402;37.922;2024-02-04T00:10:49;6.52;77.60
75164;HTU21D;63746;45.402;37.922;2024-02-04T00:13:15;6.53;77.65
75164;HTU21D;63746;45.402;37.922;2024-02-04T00:15:40;6.53;77.65
75164;HTU21D;63746;45.402;37.922;2024-02-04T00:18:06;6.53;77.66
75164;HTU21D;63746;45.402;37.922;2024-02-04T00:20:32;6.55;77.64
75164;HTU21D;63746;45.402;37.922;2024-02-04T00:22:58;6.54;77.72
75164;HTU21D;63746;45.402;37.922;2024-02-04T00:25:24;6.55;77.68
75164;HTU21D;63746;45.402;37.922;2024-02-04T00:27:50;6.57;77.62
75164;HTU21D;63746;45.402;37.922;2024-02-04T00:30:16;6.57;77.69
75164;HTU21D;63746;45.402;37.922;2024-02-04T00:33:19;6.58;77.69
75164;HTU21D;63746;45.402;37.922;2024-02-04T00:36:04;6.57;78.38
75164;HTU21D;63746;45.402;37.922;2024-02-04T00:38:30;6.57;78.45
75164;HTU21D;63746;45.402;37.922;2024-02-04T00:40:56;6.58;78.29
75164;HTU21D;63746;45.402;37.922;2024-02-04T00:43:22;6.59;78.47
75164;HTU21D;63746;45.402;37.922;2024-02-04T00:45:48;6.61;78.66
75164;HTU21D;63746;45.402;37.922;2024-02-04T00:48:14;6.63;78.90
75164;HTU21D;63746;45.402;37.922;2024-02-04T00:50:40;6.64;79.06
75164;HTU21D;63746;45.402;37.922;2024-02-04T00:53:06;6.64;79.46
75164;HTU21D;63746;45.402;37.922;2024-02-04T00:55:32;6.65;79.10
75164;HTU21D;63746;45.402;37.922;2024-02-04T00:57:58;6.67;79.80
75164;HTU21D;63746;45.402;37.922;2024-02-04T01:00:26;6.68;79.07
75164;HTU21D;63746;45.402;37.922;2024-02-04T01:02:51;6.70;78.82
75164;HTU21D;63746;45.402;37.922;2024-02-04T01:05:17;6.72;78.73
75164;HTU21D;63746;45.402;37.922;2024-02-04T01:07:43;6.74;78.54
75164;HTU21D;63746;45.402;37.922;2024-02-04T01:10:10;6.76;78.80
75164;HTU21D;63746;45.402;37.922;2024-02-04T01:12:55;6.78;79.02
75164;HTU21D;63746;45.402;37.922;2024-02-04T01:18:23;6.83;78.84
75164;HTU21D;63746;45.402;37.922;2024-02-04T01:20:50;6.84;78.50
75164;HTU21D;63746;45.402;37.922;2024-02-04T01:23:16;6.85;78.34
75164;HTU21D;63746;45.402;37.922;2024-02-04T01:25:45;6.87;78.44
75164;HTU21D;63746;45.402;37.922;2024-02-04T01:28:11;6.88;78.27
75164;HTU21D;63746;45.402;37.922;2024-02-04T01:30:37;6.88;78.45
75164;HTU21D;63746;45.402;37.922;2024-02-04T01:33:03;6.89;78.30
75164;HTU21D;63746;45.402;37.922;2024-02-04T01:35:29;6.90;78.37
75164;HTU21D;63746;45.402;37.922;2024-02-04T01:37:55;6.91;78.28
75164;HTU21D;63746;45.402;37.922;2024-02-04T01:40:21;6.90;78.16
75164;HTU21D;63746;45.402;37.922;2024-02-04T01:42:47;6.93;78.09
75164;HTU21D;63746;45.402;37.922;2024-02-04T01:45:13;6.93;78.34
75164;HTU21D;63746;45.402;37.922;2024-02-04T01:47:39;6.94;78.34
75164;HTU21D;63746;45.402;37.922;2024-02-04T01:50:05;6.93;78.18
75164;HTU21D;63746;45.402;37.922;2024-02-04T01:52:33;6.95;78.00
75164;HTU21D;63746;45.402;37.922;2024-02-04T01:55:00;6.96;78.64
75164;HTU21D;63746;45.402;37.922;2024-02-04T01:57:27;6.94;78.69
75164;HTU21D;63746;45.402;37.922;2024-02-04T01:59:55;6.93;78.29
75164;HTU21D;63746;45.402;37.922;2024-02-04T02:02:23;6.93;78.26
75164;HTU21D;63746;45.402;37.922;2024-02-04T02:04:51;6.94;78.24
75164;HTU21D;63746;45.402;37.922;2024-02-04T02:07:18;6.95;78.14
75164;HTU21D;63746;45.402;37.922;2024-02-04T02:09:47;6.97;78.17
75164;HTU21D;63746;45.402;37.922;2024-02-04T02:12:40;6.97;78.16
75164;HTU21D;63746;45.402;37.922;2024-02-04T02:15:15;6.97;78.22
75164;HTU21D;63746;45.402;37.922;2024-02-04T02:17:53;6.99;77.97
75164;HTU21D;63746;45.402;37.922;2024-02-04T02:20:30;6.98;77.83
75164;HTU21D;63746;45.402;37.922;2024-02-04T02:23:07;7.00;77.95
75164;HTU21D;63746;45.402;37.922;2024-02-04T02:25:36;7.00;77.94
75164;HTU21D;63746;45.402;37.922;2024-02-04T02:28:02;7.01;78.19
75164;HTU21D;63746;45.402;37.922;2024-02-04T02:30:28;7.02;78.14
75164;HTU21D;63746;45.402;37.922;2024-02-04T02:32:54;7.02;78.11
75164;HTU21D;63746;45.402;37.922;2024-02-04T02:35:21;7.03;78.39
75164;HTU21D;63746;45.402;37.922;2024-02-04T02:40:56;7.04;78.69
75164;HTU21D;63746;45.402;37.922;2024-02-04T02:43:24;7.05;78.68
75164;HTU21D;63746;45.402;37.922;2024-02-04T02:45:51;7.07;78.47
75164;HTU21D;63746;45.402;37.922;2024-02-04T02:48:18;7.08;78.28
75164;HTU21D;63746;45.402;37.922;2024-02-04T02:50:44;7.10;78.47
75164;HTU21D;63746;45.402;37.922;2024-02-04T02:53:10;7.11;79.26
75164;HTU21D;63746;45.402;37.922;2024-02-04T02:55:54;7.12;79.21
75164;HTU21D;63746;45.402;37.922;2024-02-04T02:58:20;7.13;78.93
75164;HTU21D;63746;45.402;37.922;2024-02-04T03:00:46;7.14;78.66
75164;HTU21D;63746;45.402;37.922;2024-02-04T03:03:12;7.15;78.63
75164;HTU21D;63746;45.402;37.922;2024-02-04T03:05:38;7.16;78.54
75164;HTU21D;63746;45.402;37.922;2024-02-04T03:08:04;7.17;78.34
75164;HTU21D;63746;45.402;37.922;2024-02-04T03:10:30;7.19;78.60
75164;HTU21D;63746;45.402;37.922;2024-02-04T03:12:56;7.22;78.45
75164;HTU21D;63746;45.402;37.922;2024-02-04T03:15:22;7.23;78.34
75164;HTU21D;63746;45.402;37.922;2024-02-04T03:17:48;7.23;78.15
75164;HTU21D;63746;45.402;37.922;2024-02-04T03:20:14;7.26;78.02
75164;HTU21D;63746;45.402;37.922;2024-02-04T03:22:40;7.26;77.93
75164;HTU21D;63746;45.402;37.922;2024-02-04T03:25:06;7.28;77.85
75164;HTU21D;63746;45.402;37.922;2024-02-04T03:27:32;7.30;77.95
75164;HTU21D;63746;45.402;37.922;2024-02-04T03:29:59;7.32;77.92
75164;HTU21D;63746;45.402;37.922;2024-02-04T03:32:25;7.32;77.87
75164;HTU21D;63746;45.402;37.922;2024-02-04T03:34:51;7.33;77.86
75164;HTU21D;63746;45.402;37.922;2024-02-04T03:37:17;7.34;77.90
75164;HTU21D;63746;45.402;37.922;2024-02-04T03:39:43;7.37;77.89
75164;HTU21D;63746;45.402;37.922;2024-02-04T03:42:09;7.38;77.76
75164;HTU21D;63746;45.402;37.922;2024-02-04T03:44:35;7.39;77.84
75164;HTU21D;63746;45.402;37.922;2024-02-04T03:47:01;7.41;77.68
75164;HTU21D;63746;45.402;37.922;2024-02-04T03:49:46;7.43;77.76
75164;HTU21D;63746;45.402;37.922;2024-02-04T03:52:12;7.43;77.67
75164;HTU21D;63746;45.402;37.922;2024-02-04T03:57:25;7.46;77.82
75164;HTU21D;63746;45.402;37.922;2024-02-04T04:00:09;7.46;77.95
75164;HTU21D;63746;45.402;37.922;2024-02-04T04:02:39;7.47;77.77
75164;HTU21D;63746;45.402;37.922;2024-02-04T04:05:05;7.49;77.62
75164;HTU21D;63746;45.402;37.922;2024-02-04T04:07:31;7.52;77.56
75164;HTU21D;63746;45.402;37.922;2024-02-04T04:09:57;7.52;77.58
75164;HTU21D;63746;45.402;37.922;2024-02-04T04:12:23;7.54;77.56
75164;HTU21D;63746;45.402;37.922;2024-02-04T04:14:49;7.55;77.63
75164;HTU21D;63746;45.402;37.922;2024-02-04T04:17:15;7.55;77.53
75164;HTU21D;63746;45.402;37.922;2024-02-04T04:19:41;7.56;77.47
75164;HTU21D;63746;45.402;37.922;2024-02-04T04:22:07;7.58;77.50
75164;HTU21D;63746;45.402;37.922;2024-02-04T04:24:33;7.57;77.41
75164;HTU21D;63746;45.402;37.922;2024-02-04T04:27:00;7.60;77.41
75164;HTU21D;63746;45.402;37.922;2024-02-04T04:29:26;7.58;77.48
75164;HTU21D;63746;45.402;37.922;2024-02-04T04:31:52;7.58;77.37
75164;HTU21D;63746;45.402;37.922;2024-02-04T04:34:18;7.58;77.28
75164;HTU21D;63746;45.402;37.922;2024-02-04T04:37:03;7.58;77.37
75164;HTU21D;63746;45.402;37.922;2024-02-04T04:39:29;7.58;77.40
75164;HTU21D;63746;45.402;37.922;2024-02-04T04:41:56;7.57;77.35
75164;HTU21D;63746;45.402;37.922;2024-02-04T04:44:22;7.57;77.37
75164;HTU21D;63746;45.402;37.922;2024-02-04T04:46:48;7.56;77.60
75164;HTU21D;63746;45.402;37.922;2024-02-04T04:49:14;7.56;77.39
75164;HTU21D;63746;45.402;37.922;2024-02-04T04:51:44;7.58;77.38
75164;HTU21D;63746;45.402;37.922;2024-02-04T04:54:11;7.58;77.43
75164;HTU21D;63746;45.402;37.922;2024-02-04T04:56:41;7.58;77.38
75164;HTU21D;63746;45.402;37.922;2024-02-04T04:59:07;7.58;77.43
75164;HTU21D;63746;45.402;37.922;2024-02-04T05:01:33;7.58;77.28
75164;HTU21D;63746;45.402;37.922;2024-02-04T05:04:00;7.60;77.24
75164;HTU21D;63746;45.402;37.922;2024-02-04T05:06:26;7.60;77.27
75164;HTU21D;63746;45.402;37.922;2024-02-04T05:08:52;7.60;77.29
75164;HTU21D;63746;45.402;37.922;2024-02-04T05:11:18;7.60;77.40
75164;HTU21D;63746;45.402;37.922;2024-02-04T05:13:44;7.60;77.32
75164;HTU21D;63746;45.402;37.922;2024-02-04T05:16:10;7.61;77.21
75164;HTU21D;63746;45.402;37.922;2024-02-04T05:18:55;7.61;77.21
75164;HTU21D;63746;45.402;37.922;2024-02-04T05:21:21;7.60;77.28
75164;HTU21D;63746;45.402;37.922;2024-02-04T05:23:46;7.61;77.20
75164;HTU21D;63746;45.402;37.922;2024-02-04T05:26:12;7.59;77.23
75164;HTU21D;63746;45.402;37.922;2024-02-04T05:28:38;7.60;77.30
75164;HTU21D;63746;45.402;37.922;2024-02-04T05:31:23;7.60;77.24
75164;HTU21D;63746;45.402;37.922;2024-02-04T05:33:51;7.61;77.37
75164;HTU21D;63746;45.402;37.922;2024-02-04T05:36:17;7.61;77.29
75164;HTU21D;63746;45.402;37.922;2024-02-04T05:38:45;7.61;77.23
75164;HTU21D;63746;45.402;37.922;2024-02-04T05:41:11;7.61;77.18
75164;HTU21D;63746;45.402;37.922;2024-02-04T05:43:38;7.62;77.34
75164;HTU21D;63746;45.402;37.922;2024-02-04T05:46:05;7.62;77.29
75164;HTU21D;63746;45.402;37.922;2024-02-04T05:48:49;7.63;77.20
75164;HTU21D;63746;45.402;37.922;2024-02-04T05:51:15;7.64;77.25
75164;HTU21D;63746;45.402;37.922;2024-02-04T05:53:41;7.67;77.24
75164;HTU21D;63746;45.402;37.922;2024-02-04T05:56:07;7.68;77.24
75164;HTU21D;63746;45.402;37.922;2024-02-04T05:58:33;7.70;77.24
75164;HTU21D;63746;45.402;37.922;2024-02-04T06:00:59;7.72;77.31
75164;HTU21D;63746;45.402;37.922;2024-02-04T06:03:25;7.75;77.35
75164;HTU21D;63746;45.402;37.922;2024-02-04T06:05:51;7.75;77.31
75164;HTU21D;63746;45.402;37.922;2024-02-04T06:08:17;7.79;77.34
75164;HTU21D;63746;45.402;37.922;2024-02-04T06:10:43;7.82;77.31
75164;HTU21D;63746;45.402;37.922;2024-02-04T06:13:09;7.83;77.30
75164;HTU21D;63746;45.402;37.922;2024-02-04T06:15:35;7.85;77.31
75164;HTU21D;63746;45.402;37.922;2024-02-04T06:18:01;7.86;77.25
75164;HTU21D;63746;45.402;37.922;2024-02-04T06:20:27;7.87;77.26
75164;HTU21D;63746;45.402;37.922;2024-02-04T06:22:53;7.87;77.31
75164;HTU21D;63746;45.402;37.922;2024-02-04T06:25:19;7.90;77.31
75164;HTU21D;63746;45.402;37.922;2024-02-04T06:27:45;7.92;77.26
75164;HTU21D;63746;45.402;37.922;2024-02-04T06:30:11;7.94;77.24
75164;HTU21D;63746;45.402;37.922;2024-02-04T06:32:37;7.96;77.34
75164;HTU21D;63746;45.402;37.922;2024-02-04T06:35:04;7.97;77.31
75164;HTU21D;63746;45.402;37.922;2024-02-04T06:37:30;7.99;77.19
75164;HTU21D;63746;45.402;37.922;2024-02-04T06:39:56;8.01;77.15
75164;HTU21D;63746;45.402;37.922;2024-02-04T06:42:22;8.02;77.15
75164;HTU21D;63746;45.402;37.922;2024-02-04T06:44:47;8.03;77.18
75164;HTU21D;63746;45.402;37.922;2024-02-04T06:47:13;8.06;77.12
75164;HTU21D;63746;45.402;37.922;2024-02-04T06:49:43;8.07;77.07
75164;HTU21D;63746;45.402;37.922;2024-02-04T06:52:10;8.08;77.10
75164;HTU21D;63746;45.402;37.922;2024-02-04T06:54:36;8.09;77.11
75164;HTU21D;63746;45.402;37.922;2024-02-04T06:57:02;8.12;77.06
75164;HTU21D;63746;45.402;37.922;2024-02-04T06:59:28;8.12;77.00
75164;HTU21D;63746;45.402;37.922;2024-02-04T07:01:54;8.13;77.05
75164;HTU21D;63746;45.402;37.922;2024-02-04T07:04:20;8.15;76.99
75164;HTU21D;63746;45.402;37.922;2024-02-04T07:06:53;8.17;77.00
75164;HTU21D;63746;45.402;37.922;2024-02-04T07:09:19;8.18;77.05
75164;HTU21D;63746;45.402;37.922;2024-02-04T07:11:45;8.18;77.05
75164;HTU21D;63746;45.402;37.922;2024-02-04T07:14:13;8.18;76.95
75164;HTU21D;63746;45.402;37.922;2024-02-04T07:16:39;8.20;77.02
75164;HTU21D;63746;45.402;37.922;2024-02-04T07:19:05;8.20;77.01
75164;HTU21D;63746;45.402;37.922;2024-02-04T07:21:31;8.22;77.00
75164;HTU21D;63746;45.402;37.922;2024-02-04T07:23:57;8.24;76.99
75164;HTU21D;63746;45.402;37.922;2024-02-04T07:26:23;8.29;77.10
75164;HTU21D;63746;45.402;37.922;2024-02-04T07:28:49;8.31;77.05
75164;HTU21D;63746;45.402;37.922;2024-02-04T07:31:15;8.34;77.14
75164;HTU21D;63746;45.402;37.922;2024-02-04T07:33:41;8.35;77.08
75164;HTU21D;63746;45.402;37.922;2024-02-04T07:36:08;8.37;77.02
75164;HTU21D;63746;45.402;37.922;2024-02-04T07:38:34;8.42;77.14
75164;HTU21D;63746;45.402;37.922;2024-02-04T07:41:00;8.45;77.11
75164;HTU21D;63746;45.402;37.922;2024-02-04T07:43:26;8.49;77.12
75164;HTU21D;63746;45.402;37.922;2024-02-04T07:45:53;8.51;77.19
75164;HTU21D;63746;45.402;37.922;2024-02-04T07:48:19;8.58;77.18
75164;HTU21D;63746;45.402;37.922;2024-02-04T07:50:48;8.60;77.13
75164;HTU21D;63746;45.402;37.922;2024-02-04T07:53:14;8.63;77.22
75164;HTU21D;63746;45.402;37.922;2024-02-04T07:55:40;8.67;77.18
75164;HTU21D;63746;45.402;37.922;2024-02-04T07:58:06;8.70;77.11
75164;HTU21D;63746;45.402;37.922;2024-02-04T08:00:32;8.74;77.10
75164;HTU21D;63746;45.402;37.922;2024-02-04T08:02:58;8.75;77.03
75164;HTU21D;63746;45.402;37.922;2024-02-04T08:05:24;8.77;76.96
75164;HTU21D;63746;45.402;37.922;2024-02-04T08:07:50;8.77;76.91
75164;HTU21D;63746;45.402;37.922;2024-02-04T08:10:16;8.79;76.92
75164;HTU21D;63746;45.402;37.922;2024-02-04T08:12:42;8.82;76.89
75164;HTU21D;63746;45.402;37.922;2024-02-04T08:15:09;8.82;76.90
75164;HTU21D;63746;45.402;37.922;2024-02-04T08:17:35;8.82;76.86
75164;HTU21D;63746;45.402;37.922;2024-02-04T08:20:01;8.85;76.79
75164;HTU21D;63746;45.402;37.922;2024-02-04T08:22:29;8.86;76.79
75164;HTU21D;63746;45.402;37.922;2024-02-04T08:24:55;8.87;76.82
75164;HTU21D;63746;45.402;37.922;2024-02-04T08:27:21;8.86;76.79
75164;HTU21D;63746;45.402;37.922;2024-02-04T08:29:47;8.87;76.76
75164;HTU21D;63746;45.402;37.922;2024-02-04T08:32:13;8.88;76.72
75164;HTU21D;63746;45.402;37.922;2024-02-04T08:34:39;8.87;76.69
75164;HTU21D;63746;45.402;37.922;2024-02-04T08:37:05;8.86;76.73
75164;HTU21D;63746;45.402;37.922;2024-02-04T08:39:31;8.86;76.69
75164;HTU21D;63746;45.402;37.922;2024-02-04T08:41:57;8.85;76.68
75164;HTU21D;63746;45.402;37.922;2024-02-04T08:44:23;8.86;76.70
75164;HTU21D;63746;45.402;37.922;2024-02-04T08:46:49;8.88;76.78
75164;HTU21D;63746;45.402;37.922;2024-02-04T08:49:15;8.89;76.70
75164;HTU21D;63746;45.402;37.922;2024-02-04T08:51:41;8.90;76.79
75164;HTU21D;63746;45.402;37.922;2024-02-04T08:54:07;8.93;76.81
75164;HTU21D;63746;45.402;37.922;2024-02-04T08:56:34;8.94;76.79
75164;HTU21D;63746;45.402;37.922;2024-02-04T08:59:00;8.95;76.76
75164;HTU21D;63746;45.402;37.922;2024-02-04T09:01:27;8.97;76.76
75164;HTU21D;63746;45.402;37.922;2024-02-04T09:03:53;9.00;76.75
75164;HTU21D;63746;45.402;37.922;2024-02-04T09:06:19;9.00;76.73
75164;HTU21D;63746;45.402;37.922;2024-02-04T09:08:46;9.02;76.75
75164;HTU21D;63746;45.402;37.922;2024-02-04T09:11:12;9.03;76.70
75164;HTU21D;63746;45.402;37.922;2024-02-04T09:13:47;9.03;76.70
75164;HTU21D;63746;45.402;37.922;2024-02-04T09:16:13;9.06;76.80
75164;HTU21D;63746;45.402;37.922;2024-02-04T09:18:40;9.03;76.75
75164;HTU21D;63746;45.402;37.922;2024-02-04T09:21:06;9.03;76.75
75164;HTU21D;63746;45.402;37.922;2024-02-04T09:23:32;9.03;76.73
75164;HTU21D;63746;45.402;37.922;2024-02-04T09:25:59;9.05;76.78
75164;HTU21D;63746;45.402;37.922;2024-02-04T09:28:25;9.06;76.76
75164;HTU21D;63746;45.402;37.922;2024-02-04T09:30:51;9.08;76.78
75164;HTU21D;63746;45.402;37.922;2024-02-04T09:33:17;9.10;76.79
75164;HTU21D;63746;45.402;37.922;2024-02-04T09:35:44;9.12;76.72
75164;HTU21D;63746;45.402;37.922;2024-02-04T09:38:10;9.15;76.75
75164;HTU21D;63746;45.402;37.922;2024-02-04T09:40:37;9.16;76.70
75164;HTU21D;63746;45.402;37.922;2024-02-04T09:43:03;9.17;76.74
75164;HTU21D;63746;45.402;37.922;2024-02-04T09:45:30;9.19;76.73
75164;HTU21D;63746;45.402;37.922;2024-02-04T09:47:56;9.20;76.70
75164;HTU21D;63746;45.402;37.922;2024-02-04T09:50:24;9.21;76.73
75164;HTU21D;63746;45.402;37.922;2024-02-04T09:52:51;9.23;76.70
75164;HTU21D;63746;45.402;37.922;2024-02-04T09:55:20;9.26;76.72
75164;HTU21D;63746;45.402;37.922;2024-02-04T09:57:48;9.27;76.77
75164;HTU21D;63746;45.402;37.922;2024-02-04T10:00:18;9.30;76.75
75164;HTU21D;63746;45.402;37.922;2024-02-04T10:02:47;9.34;76.81
75164;HTU21D;63746;45.402;37.922;2024-02-04T10:05:14;9.36;76.79
75164;HTU21D;63746;45.402;37.922;2024-02-04T10:07:40;9.37;76.78
75164;HTU21D;63746;45.402;37.922;2024-02-04T10:10:07;9.40;76.81
75164;HTU21D;63746;45.402;37.922;2024-02-04T10:12:34;9.44;76.80
75164;HTU21D;63746;45.402;37.922;2024-02-04T10:15:01;9.45;76.74
75164;HTU21D;63746;45.402;37.922;2024-02-04T10:17:30;9.48;76.72
75164;HTU21D;63746;45.402;37.922;2024-02-04T10:19:57;9.49;76.77
75164;HTU21D;63746;45.402;37.922;2024-02-04T10:22:26;9.52;76.84
75164;HTU21D;63746;45.402;37.922;2024-02-04T10:24:52;9.52;76.85
75164;HTU21D;63746;45.402;37.922;2024-02-04T10:27:19;9.53;76.82
75164;HTU21D;63746;45.402;37.922;2024-02-04T10:29:46;9.55;76.84
75164;HTU21D;63746;45.402;37.922;2024-02-04T10:32:12;9.55;76.80
75164;HTU21D;63746;45.402;37.922;2024-02-04T10:34:39;9.57;76.82
75164;HTU21D;63746;45.402;37.922;2024-02-04T10:37:05;9.59;76.85
75164;HTU21D;63746;45.402;37.922;2024-02-04T10:39:31;9.59;76.89
75164;HTU21D;63746;45.402;37.922;2024-02-04T10:42:02;9.60;76.79
75164;HTU21D;63746;45.402;37.922;2024-02-04T10:44:33;9.61;76.92
75164;HTU21D;63746;45.402;37.922;2024-02-04T10:47:05;9.63;76.86
75164;HTU21D;63746;45.402;37.922;2024-02-04T10:49:34;9.64;76.95
75164;HTU21D;63746;45.402;37.922;2024-02-04T10:52:07;9.66;77.09
75164;HTU21D;63746;45.402;37.922;2024-02-04T10:54:36;9.68;77.05
75164;HTU21D;63746;45.402;37.922;2024-02-04T10:57:09;9.70;77.17
75164;HTU21D;63746;45.402;37.922;2024-02-04T10:59:37;9.74;77.27
75164;HTU21D;63746;45.402;37.922;2024-02-04T11:02:05;9.76;77.15
75164;HTU21D;63746;45.402;37.922;2024-02-04T11:04:33;9.78;77.11
75164;HTU21D;63746;45.402;37.922;2024-02-04T11:07:01;9.80;77.23
75164;HTU21D;63746;45.402;37.922;2024-02-04T11:09:29;9.81;77.13
75164;HTU21D;63746;45.402;37.922;2024-02-04T11:11:59;9.84;77.09
75164;HTU21D;63746;45.402;37.922;2024-02-04T11:14:27;9.85;77.19
75164;HTU21D;63746;45.402;37.922;2024-02-04T11:17:19;9.90;77.01
75164;HTU21D;63746;45.402;37.922;2024-02-04T11:19:59;9.90;77.16
75164;HTU21D;63746;45.402;37.922;2024-02-04T11:25:45;9.96;77.22
75164;HTU21D;63746;45.402;37.922;2024-02-04T11:28:12;9.98;77.47
75164;HTU21D;63746;45.402;37.922;2024-02-04T11:30:39;9.99;77.46
75164;HTU21D;63746;45.402;37.922;2024-02-04T11:33:06;10.01;77.32
75164;HTU21D;63746;45.402;37.922;2024-02-04T11:35:33;10.06;77.47
75164;HTU21D;63746;45.402;37.922;2024-02-04T11:37:59;10.10;77.25
75164;HTU21D;63746;45.402;37.922;2024-02-04T11:40:35;10.11;77.17
75164;HTU21D;63746;45.402;37.922;2024-02-04T11:43:15;10.12;77.25
75164;HTU21D;63746;45.402;37.922;2024-02-04T11:45:42;10.08;77.08
75164;HTU21D;63746;45.402;37.922;2024-02-04T11:48:11;10.07;76.92
75164;HTU21D;63746;45.402;37.922;2024-02-04T11:50:38;10.07;76.80
75164;HTU21D;63746;45.402;37.922;2024-02-04T11:53:12;10.04;76.63
75164;HTU21D;63746;45.402;37.922;2024-02-04T11:55:41;10.04;76.64
75164;HTU21D;63746;45.402;37.922;2024-02-04T11:58:08;10.04;76.63
75164;HTU21D;63746;45.402;37.922;2024-02-04T12:00:37;10.04;76.71
75164;HTU21D;63746;45.402;37.922;2024-02-04T12:03:05;10.04;76.70
75164;HTU21D;63746;45.402;37.922;2024-02-04T12:05:32;10.01;76.75
75164;HTU21D;63746;45.402;37.922;2024-02-04T12:08:03;9.99;76.66
75164;HTU21D;63746;45.402;37.922;2024-02-04T12:10:31;9.97;76.67
75164;HTU21D;63746;45.402;37.922;2024-02-04T12:12:59;9.98;76.70
75164;HTU21D;63746;45.402;37.922;2024-02-04T12:15:28;9.97;76.80
75164;HTU21D;63746;45.402;37.922;2024-02-04T12:17:54;9.98;76.91
75164;HTU21D;63746;45.402;37.922;2024-02-04T12:20:21;10.00;76.95
75164;HTU21D;63746;45.402;37.922;2024-02-04T12:22:48;10.01;76.93
75164;HTU21D;63746;45.402;37.922;2024-02-04T12:25:15;10.03;77.02
75164;HTU21D;63746;45.402;37.922;2024-02-04T12:27:43;10.03;77.15
75164;HTU21D;63746;45.402;37.922;2024-02-04T12:30:09;10.05;77.00
75164;HTU21D;63746;45.402;37.922;2024-02-04T12:32:35;10.06;76.95
75164;HTU21D;63746;45.402;37.922;2024-02-04T12:35:02;10.09;77.06
75164;HTU21D;63746;45.402;37.922;2024-02-04T12:37:28;10.09;77.15
75164;HTU21D;63746;45.402;37.922;2024-02-04T12:39:57;10.10;76.98
75164;HTU21D;63746;45.402;37.922;2024-02-04T12:42:24;10.12;76.99
75164;HTU21D;63746;45.402;37.922;2024-02-04T12:44:51;10.12;76.92
75164;HTU21D;63746;45.402;37.922;2024-02-04T12:47:20;10.13;76.84
75164;HTU21D;63746;45.402;37.922;2024-02-04T12:49:47;10.15;76.87
75164;HTU21D;63746;45.402;37.922;2024-02-04T12:52:13;10.15;76.89
75164;HTU21D;63746;45.402;37.922;2024-02-04T12:54:43;10.15;76.81
75164;HTU21D;63746;45.402;37.922;2024-02-04T12:57:10;10.18;76.84
75164;HTU21D;63746;45.402;37.922;2024-02-04T12:59:39;10.19;76.78
75164;HTU21D;63746;45.402;37.922;2024-02-04T13:02:07;10.19;76.79
75164;HTU21D;63746;45.402;37.922;2024-02-04T13:04:41;10.20;76.73
75164;HTU21D;63746;45.402;37.922;2024-02-04T13:07:09;10.22;76.85
75164;HTU21D;63746;45.402;37.922;2024-02-04T13:09:36;10.21;76.71
75164;HTU21D;63746;45.402;37.922;2024-02-04T13:12:04;10.22;76.68
75164;HTU21D;63746;45.402;37.922;2024-02-04T13:14:30;10.21;76.61
75164;HTU21D;63746;45.402;37.922;2024-02-04T13:16:57;10.21;76.66
75164;HTU21D;63746;45.402;37.922;2024-02-04T13:19:23;10.21;76.60
75164;HTU21D;63746;45.402;37.922;2024-02-04T13:21:49;10.21;76.53
75164;HTU21D;63746;45.402;37.922;2024-02-04T13:24:15;10.18;76.58
75164;HTU21D;63746;45.402;37.922;2024-02-04T13:26:42;10.16;76.50
75164;HTU21D;63746;45.402;37.922;2024-02-04T13:29:08;10.15;76.47
75164;HTU21D;63746;45.402;37.922;2024-02-04T13:31:35;10.13;76.51
75164;HTU21D;63746;45.402;37.922;2024-02-04T13:34:01;10.10;76.49
75164;HTU21D;63746;45.402;37.922;2024-02-04T13:36:30;10.07;76.41
75164;HTU21D;63746;45.402;37.922;2024-02-04T13:38:57;10.06;76.49
75164;HTU21D;63746;45.402;37.922;2024-02-04T13:41:23;10.03;76.43
75164;HTU21D;63746;45.402;37.922;2024-02-04T13:43:49;10.01;76.41
75164;HTU21D;63746;45.402;37.922;2024-02-04T13:46:16;9.99;76.43
75164;HTU21D;63746;45.402;37.922;2024-02-04T13:48:42;9.96;76.50
75164;HTU21D;63746;45.402;37.922;2024-02-04T13:51:08;9.94;76.43
75164;HTU21D;63746;45.402;37.922;2024-02-04T13:53:34;9.92;76.44
75164;HTU21D;63746;45.402;37.922;2024-02-04T13:56:01;9.91;76.48
75164;HTU21D;63746;45.402;37.922;2024-02-04T13:58:27;9.89;76.54
75164;HTU21D;63746;45.402;37.922;2024-02-04T14:00:53;9.86;76.54
75164;HTU21D;63746;45.402;37.922;2024-02-04T14:03:19;9.85;76.66
75164;HTU21D;63746;45.402;37.922;2024-02-04T14:05:45;9.85;76.66
75164;HTU21D;63746;45.402;37.922;2024-02-04T14:08:12;9.84;76.68
75164;HTU21D;63746;45.402;37.922;2024-02-04T14:10:39;9.82;76.70
75164;HTU21D;63746;45.402;37.922;2024-02-04T14:13:06;9.82;76.73
75164;HTU21D;63746;45.402;37.922;2024-02-04T14:15:32;9.82;76.77
75164;HTU21D;63746;45.402;37.922;2024-02-04T14:17:59;9.80;76.78
75164;HTU21D;63746;45.402;37.922;2024-02-04T14:20:26;9.79;76.74
75164;HTU21D;63746;45.402;37.922;2024-02-04T14:22:52;9.79;76.74
75164;HTU21D;63746;45.402;37.922;2024-02-04T14:25:19;9.77;76.81
75164;HTU21D;63746;45.402;37.922;2024-02-04T14:27:45;9.77;76.84
75164;HTU21D;63746;45.402;37.922;2024-02-04T14:30:11;9.76;76.80
75164;HTU21D;63746;45.402;37.922;2024-02-04T14:32:37;9.76;76.79
75164;HTU21D;63746;45.402;37.922;2024-02-04T14:35:04;9.75;76.86
75164;HTU21D;63746;45.402;37.922;2024-02-04T14:37:31;9.74;76.87
75164;HTU21D;63746;45.402;37.922;2024-02-04T14:40:01;9.72;76.78
75164;HTU21D;63746;45.402;37.922;2024-02-04T14:42:29;9.74;76.76
75164;HTU21D;63746;45.402;37.922;2024-02-04T14:44:55;9.70;76.83
75164;HTU21D;63746;45.402;37.922;2024-02-04T14:47:21;9.67;76.85
75164;HTU21D;63746;45.402;37.922;2024-02-04T14:49:47;9.67;76.84
75164;HTU21D;63746;45.402;37.922;2024-02-04T14:52:14;9.65;76.84
75164;HTU21D;63746;45.402;37.922;2024-02-04T14:54:43;9.65;76.80
75164;HTU21D;63746;45.402;37.922;2024-02-04T14:57:09;9.64;76.79
75164;HTU21D;63746;45.402;37.922;2024-02-04T14:59:36;9.64;76.86
75164;HTU21D;63746;45.402;37.922;2024-02-04T15:02:06;9.62;76.78
75164;HTU21D;63746;45.402;37.922;2024-02-04T15:04:33;9.60;76.95
75164;HTU21D;63746;45.402;37.922;2024-02-04T15:06:59;9.59;76.87
75164;HTU21D;63746;45.402;37.922;2024-02-04T15:09:31;9.57;76.89
75164;HTU21D;63746;45.402;37.922;2024-02-04T15:11:58;9.56;76.89
75164;HTU21D;63746;45.402;37.922;2024-02-04T15:14:24;9.55;76.83
75164;HTU21D;63746;45.402;37.922;2024-02-04T15:16:51;9.54;76.92
75164;HTU21D;63746;45.402;37.922;2024-02-04T15:19:18;9.53;76.89
75164;HTU21D;63746;45.402;37.922;2024-02-04T15:21:45;9.54;76.89
75164;HTU21D;63746;45.402;37.922;2024-02-04T15:24:12;9.52;76.85
75164;HTU21D;63746;45.402;37.922;2024-02-04T15:26:41;9.52;76.84
75164;HTU21D;63746;45.402;37.922;2024-02-04T15:29:13;9.50;76.82